Terminal Aerodrome Forecast
Issued by NWS Detroit/Pontiac, MI

Home | Current Version | Previous Version | Text Only | Print | Product List | Glossary On
Versions: 1 2 3 4 5 6 7 8 9 10 11 12 13 14 15 16
000
FTUS43 KDTX 270529
TAFFNT
TAF
KFNT 270529Z 2706/2806 34011KT P6SM SCT025 OVC035
      TEMPO 2706/2709 BKN025
     FM271500 36011KT P6SM BKN035
     FM271900 03010KT P6SM OVC040
     FM280200 35006KT P6SM FEW050 SCT150=

USA.gov is the U.S. government's official web portal to all federal, state and local government web resources and services.